Monday, December 18, 2017, 9:22 AM EST
Back to Local

KFMH, Otis Air National Guard Base

Location: Mashpee, MA, United States Lat: 41.65
Local Time: 9:22 AM EST (14:22 GMT) Lon: -70.517
Time Zone: US/Eastern Elev: 131 ft

Show me the last for .
Show Decoded

2017-12-18 09:15 METAR KFMH 181415Z AUTO 00000KT 10SM SCT028 OVC043 M01/M06 A3018 RMK AO2 =
2017-12-18 08:55 METAR KFMH 181355Z AUTO 10003KT 10SM SCT022 OVC028 M01/M07 A3018 RMK AO2 =
2017-12-18 08:35 METAR KFMH 181335Z AUTO 00000KT 10SM OVC023 M02/M07 A3018 RMK AO2 =
2017-12-18 08:15 METAR KFMH 181315Z AUTO 00000KT 10SM OVC023 M03/M08 A3019 RMK AO2 =
2017-12-18 07:55 METAR KFMH 181255Z AUTO 00000KT 10SM OVC023 M03/M07 A3019 RMK AO2 =
2017-12-18 07:35 METAR KFMH 181235Z AUTO 00000KT 10SM OVC024 M03/M08 A3019 RMK AO2 =
2017-12-18 07:15 METAR KFMH 181215Z AUTO 00000KT 10SM OVC025 M03/M09 A3020 RMK AO2 =
2017-12-18 06:55 METAR KFMH 181155Z AUTO 00000KT 10SM OVC026 M03/M10 A3019 RMK AO2 =
2017-12-18 06:35 METAR KFMH 181135Z AUTO 00000KT 10SM OVC025 M04/M09 A3019 RMK AO2 =
2017-12-18 06:15 METAR KFMH 181115Z AUTO 00000KT 10SM OVC025 M04/M09 A3018 RMK AO2 =
2017-12-18 05:55 METAR KFMH 181055Z AUTO 00000KT 10SM OVC027 M04/M09 A3019 RMK AO2 =
2017-12-18 05:35 METAR KFMH 181035Z AUTO 00000KT 10SM BKN029 BKN040 OVC075 M04/M09 A3020 RMK AO2
                 =
2017-12-18 05:15 METAR KFMH 181015Z AUTO 00000KT 10SM FEW030 FEW044 OVC070 M04/M10 A3019 RMK AO2
                 =
2017-12-18 04:55 METAR KFMH 180955Z AUTO 00000KT 10SM FEW038 OVC070 M04/M09 A3019 RMK AO2 =
2017-12-18 04:35 METAR KFMH 180935Z AUTO 00000KT 10SM BKN038 OVC070 M04/M11 A3020 RMK AO2 =
2017-12-18 04:15 METAR KFMH 180915Z AUTO 01005KT 10SM OVC038 M04/M12 A3021 RMK AO2 =
2017-12-18 03:55 METAR KFMH 180855Z AUTO 35003KT 10SM SCT038 BKN060 OVC075 M04/M12 A3022 RMK AO2
                 =
2017-12-18 03:35 METAR KFMH 180835Z AUTO 01003KT 10SM FEW055 OVC070 M04/M12 A3022 RMK AO2 =
2017-12-18 03:15 METAR KFMH 180815Z AUTO 36004KT 10SM OVC065 M04/M12 A3022 RMK AO2 =
2017-12-18 02:55 METAR KFMH 180755Z AUTO 34003KT 10SM OVC070 M05/M12 A3023 RMK AO2 =
2017-12-18 02:35 METAR KFMH 180735Z AUTO 00000KT 10SM OVC075 M05/M11 A3024 RMK AO2 =
2017-12-18 02:15 METAR KFMH 180715Z AUTO 00000KT 10SM OVC075 M05/M12 A3023 RMK AO2 =
2017-12-18 01:55 METAR KFMH 180655Z AUTO 34004KT 10SM BKN075 OVC110 M05/M13 A3024 RMK AO2 =
2017-12-18 01:35 METAR KFMH 180635Z AUTO 00000KT 10SM FEW050 FEW080 BKN110 M06/M12 A3023 RMK AO2
                 =
2017-12-18 01:15 METAR KFMH 180615Z AUTO 00000KT 10SM SCT110 M06/M13 A3024 RMK AO2 =
2017-12-18 00:55 METAR KFMH 180555Z AUTO 29003KT 10SM CLR M06/M13 A3024 RMK AO2 =
2017-12-18 00:35 METAR KFMH 180535Z AUTO 29003KT 10SM FEW110 M07/M13 A3024 RMK AO2 =
2017-12-18 00:15 METAR KFMH 180515Z AUTO 00000KT 10SM SCT120 M06/M14 A3024 RMK AO2 =
2017-12-17 23:55 METAR KFMH 180455Z AUTO 00000KT 10SM CLR M07/M13 A3024 RMK AO2 =
2017-12-17 23:35 METAR KFMH 180435Z AUTO 26003KT 10SM CLR M07/M13 A3025 RMK AO2 =
2017-12-17 23:15 METAR KFMH 180415Z AUTO 31003KT 10SM CLR M07/M13 A3025 RMK AO2 =
2017-12-17 22:55 METAR KFMH 180355Z AUTO 00000KT 10SM CLR M05/M15 A3025 RMK AO2 =
2017-12-17 22:35 METAR KFMH 180335Z AUTO 36004KT 10SM CLR M05/M14 A3026 RMK AO2 =
2017-12-17 22:15 METAR KFMH 180315Z AUTO 29003KT 10SM CLR M06/M11 A3027 RMK AO2 =
2017-12-17 21:55 METAR KFMH 180255Z AUTO 00000KT 10SM CLR M05/M12 A3027 RMK AO2 =
2017-12-17 21:35 METAR KFMH 180235Z AUTO 00000KT 10SM CLR M06/M11 A3027 RMK AO2 =
2017-12-17 21:15 METAR KFMH 180215Z AUTO 00000KT 10SM CLR M06/M11 A3028 RMK AO2 =
2017-12-17 20:55 METAR KFMH 180155Z AUTO 00000KT 10SM CLR M07/M12 A3029 RMK AO2 =
2017-12-17 20:35 METAR KFMH 180135Z AUTO 00000KT 10SM CLR M07/M11 A3029 RMK AO2 =
2017-12-17 20:15 METAR KFMH 180115Z AUTO 00000KT 10SM CLR M07/M12 A3028 RMK AO2 =
2017-12-17 19:55 METAR KFMH 180055Z AUTO 00000KT 10SM CLR M07/M12 A3028 RMK AO2 =
2017-12-17 19:35 METAR KFMH 180035Z AUTO 00000KT 10SM CLR M06/M13 A3028 RMK AO2 =
2017-12-17 19:15 METAR KFMH 180015Z AUTO 00000KT 10SM CLR M06/M13 A3027 RMK AO2 =
2017-12-17 18:55 METAR KFMH 172355Z AUTO 30003KT 10SM CLR M07/M12 A3028 RMK AO2 =
2017-12-17 18:35 METAR KFMH 172335Z AUTO 00000KT 10SM CLR M06/M12 A3027 RMK AO2 =
2017-12-17 18:15 METAR KFMH 172315Z AUTO 00000KT 10SM CLR M05/M13 A3025 RMK AO2 =
2017-12-17 17:55 METAR KFMH 172255Z AUTO 00000KT 10SM CLR M06/M13 A3026 RMK AO2 =
2017-12-17 17:35 METAR KFMH 172235Z AUTO 00000KT 10SM CLR M06/M13 A3025 RMK AO2 =
2017-12-17 17:15 METAR KFMH 172215Z AUTO 00000KT 10SM CLR M06/M13 A3025 RMK AO2 =
2017-12-17 16:55 METAR KFMH 172155Z AUTO 00000KT 10SM CLR M05/M14 A3024 RMK AO2 =
2017-12-17 16:35 METAR KFMH 172135Z AUTO 00000KT 10SM CLR M04/M15 A3024 RMK AO2 =
2017-12-17 16:15 METAR KFMH 172115Z AUTO 00000KT 10SM CLR M03/M15 A3024 RMK AO2 =
2017-12-17 15:55 METAR KFMH 172055Z AUTO 00000KT 10SM CLR M04/M15 A3024 RMK AO2 =
2017-12-17 15:35 METAR KFMH 172035Z AUTO 30003KT 10SM CLR M03/M16 A3024 RMK AO2 =
2017-12-17 15:15 METAR KFMH 172015Z AUTO 30004KT 10SM CLR M03/M15 A3023 RMK AO2 =
2017-12-17 14:55 METAR KFMH 171955Z AUTO 27007KT 10SM CLR M03/M15 A3022 RMK AO2 =
2017-12-17 14:35 METAR KFMH 171935Z AUTO 27005KT 10SM CLR M03/M15 A3022 RMK AO2 =
2017-12-17 14:15 METAR KFMH 171915Z AUTO 29005KT 10SM CLR M02/M16 A3022 RMK AO2 =
2017-12-17 13:55 METAR KFMH 171855Z AUTO 31006KT 10SM CLR M02/M18 A3022 RMK AO2 =
2017-12-17 13:35 METAR KFMH 171835Z AUTO 30006G11KT 10SM CLR M02/M18 A3023 RMK AO2 =
2017-12-17 13:15 METAR KFMH 171815Z AUTO 29009KT 10SM CLR M02/M17 A3023 RMK AO2 =
2017-12-17 12:55 METAR KFMH 171755Z AUTO 33006KT 10SM CLR M03/M18 A3023 RMK AO2 =
2017-12-17 12:35 METAR KFMH 171735Z AUTO 33008KT 10SM CLR M02/M18 A3023 RMK AO2 =
2017-12-17 12:15 METAR KFMH 171715Z AUTO 31006G12KT 10SM CLR M03/M17 A3024 RMK AO2 =
2017-12-17 11:55 METAR KFMH 171655Z AUTO 29009KT 10SM CLR M03/M16 A3025 RMK AO2 =
2017-12-17 11:35 METAR KFMH 171635Z AUTO 28009KT 10SM CLR M03/M15 A3025 RMK AO2 =
2017-12-17 11:15 METAR KFMH 171615Z AUTO 30008KT 10SM CLR M03/M16 A3025 RMK AO2 =
2017-12-17 10:55 METAR KFMH 171555Z AUTO VRB06G12KT 10SM CLR M04/M16 A3026 RMK AO2 =
2017-12-17 10:35 METAR KFMH 171535Z AUTO 30009KT 10SM CLR M04/M15 A3026 RMK AO2 =
2017-12-17 10:15 METAR KFMH 171515Z AUTO 31010KT 10SM CLR M04/M16 A3026 RMK AO2 =
2017-12-17 09:55 METAR KFMH 171455Z AUTO 31010KT 10SM CLR M05/M16 A3027 RMK AO2 =

Support USWX by starting your Amazon purchase here.